Earlston, United Kingdom
Current Conditions -  °F | °C
As of 5:50 PM on Monday 24 Nov 2014 (Local Time) from EGPH Reporting Station
Clear Clear  
Wind Chill:   Ceiling: Unl
Heat Index:   Visibility: 6mi
Dew Point:   Wind: 8mph
Humidity: 81%   Direction: 240°WSW
Pressure: 30.21"   Gusts: NA
Location:  55.64°N, 2.67°W
Report Text: EGPH 241750Z 24007KT CAVOK 07/04 Q1023
Loading
Personal Weather Stations






























Interactive Weather Map New forecast layout! Learn more

10-Day Weather Forecast

Advertisements
Track Severe Weather on mobile